createdAt,value
2022-10-13T00:00:41.150Z,100883.66
2022-10-13T00:03:09.645Z,100877.47
2022-10-13T00:05:42.265Z,100872.09
2022-10-13T00:08:10.241Z,100874.63
2022-10-13T00:10:43.619Z,100865.31
2022-10-13T00:13:14.357Z,100865.34
2022-10-13T00:15:44.268Z,100865.31
2022-10-13T00:18:12.009Z,100872.88
2022-10-13T00:20:42.928Z,100874.72
2022-10-13T00:23:10.811Z,100876.38
2022-10-13T00:25:42.381Z,100882.56
2022-10-13T00:28:10.208Z,100877.56
2022-10-13T00:30:39.810Z,100889.66
2022-10-13T00:33:07.742Z,100891.47
2022-10-13T00:35:35.971Z,100890.38
2022-10-13T00:38:03.715Z,100891.34
2022-10-13T00:40:31.958Z,100887.00
2022-10-13T00:42:59.648Z,100895.69
2022-10-13T00:45:29.334Z,100902.91
2022-10-13T00:48:01.681Z,100895.31
2022-10-13T00:50:34.720Z,100898.84
2022-10-13T00:53:03.935Z,100892.16
2022-10-13T00:55:35.142Z,100890.53
2022-10-13T00:58:07.302Z,100887.06
2022-10-13T01:00:36.008Z,100884.28
2022-10-13T01:03:05.482Z,100878.25
2022-10-13T01:05:34.361Z,100878.50
2022-10-13T01:08:02.490Z,100881.97
2022-10-13T01:10:40.248Z,100879.34
2022-10-13T01:13:14.369Z,100877.75
2022-10-13T01:15:47.802Z,100881.38
2022-10-13T01:18:25.257Z,100876.13
2022-10-13T01:21:13.052Z,100880.53
2022-10-13T01:23:56.682Z,100882.94
2022-10-13T01:26:52.122Z,100881.09
2022-10-13T01:29:45.154Z,100881.97
2022-10-13T01:32:21.052Z,100873.28
2022-10-13T01:34:56.371Z,100880.53
2022-10-13T01:37:32.590Z,100882.25
2022-10-13T01:40:08.067Z,100871.59
2022-10-13T01:42:41.413Z,100872.66
2022-10-13T01:45:21.421Z,100872.56
2022-10-13T01:47:51.236Z,100862.94
2022-10-13T01:50:20.463Z,100863.66
2022-10-13T01:52:50.690Z,100860.19
2022-10-13T01:55:18.388Z,100852.34
2022-10-13T01:57:46.484Z,100860.94
2022-10-13T02:00:18.063Z,100855.13
2022-10-13T02:02:59.436Z,100857.91
2022-10-13T02:05:39.694Z,100850.31
2022-10-13T02:08:14.240Z,100852.78
2022-10-13T02:10:51.870Z,100853.19
2022-10-13T02:13:25.538Z,100848.31
2022-10-13T02:16:01.417Z,100837.84
2022-10-13T02:18:34.107Z,100849.97
2022-10-13T02:21:02.449Z,100843.66
2022-10-13T02:23:30.686Z,100841.94
2022-10-13T02:26:00.454Z,100844.09
2022-10-13T02:28:29.600Z,100841.75
2022-10-13T02:30:58.716Z,100833.16
2022-10-13T02:33:26.354Z,100834.97
2022-10-13T02:35:53.940Z,100834.09
2022-10-13T02:38:21.706Z,100838.41
2022-10-13T02:40:49.362Z,100837.66
2022-10-13T02:43:17.059Z,100835.97
2022-10-13T02:45:44.755Z,100835.34
2022-10-13T02:48:13.801Z,100828.50
2022-10-13T02:50:41.493Z,100823.19
2022-10-13T02:53:09.104Z,100819.63
2022-10-13T02:55:36.797Z,100823.75
2022-10-13T02:58:04.471Z,100827.13
2022-10-13T03:00:32.148Z,100827.03
2022-10-13T03:03:00.343Z,100816.50
2022-10-13T03:05:29.435Z,100822.16
2022-10-13T03:07:57.107Z,100826.34
2022-10-13T03:10:24.793Z,100831.50
2022-10-13T03:12:55.387Z,100829.72
2022-10-13T03:15:23.088Z,100824.56
2022-10-13T03:17:50.822Z,100826.31
2022-10-13T03:20:18.806Z,100819.34
2022-10-13T03:22:49.873Z,100821.94
2022-10-13T03:25:18.288Z,100827.50
2022-10-13T03:27:45.988Z,100825.69
2022-10-13T03:30:13.968Z,100821.16
2022-10-13T03:32:41.752Z,100814.13
2022-10-13T03:35:10.149Z,100813.13
2022-10-13T03:37:37.790Z,100815.16
2022-10-13T03:40:08.358Z,100810.00
2022-10-13T03:42:36.787Z,100811.56
2022-10-13T03:45:04.738Z,100806.88
2022-10-13T03:47:36.842Z,100819.59
2022-10-13T03:50:05.554Z,100816.63
2022-10-13T03:52:33.207Z,100815.69
2022-10-13T03:55:00.834Z,100818.94
2022-10-13T03:57:30.687Z,100813.72
2022-10-13T03:59:58.814Z,100817.94
2022-10-13T04:02:27.745Z,100810.97
2022-10-13T04:04:56.596Z,100809.97
2022-10-13T04:07:24.303Z,100804.84
2022-10-13T04:09:51.995Z,100810.84
2022-10-13T04:12:21.091Z,100812.56
2022-10-13T04:14:50.251Z,100813.50
2022-10-13T04:17:17.947Z,100821.50
2022-10-13T04:19:45.742Z,100829.75
2022-10-13T04:22:13.369Z,100827.38
2022-10-13T04:24:42.078Z,100837.03
2022-10-13T04:27:10.079Z,100834.00
2022-10-13T04:29:37.786Z,100835.31
2022-10-13T04:32:07.011Z,100830.00
2022-10-13T04:34:34.899Z,100820.13
2022-10-13T04:37:02.506Z,100814.91
2022-10-13T04:39:30.112Z,100814.91
2022-10-13T04:41:57.866Z,100814.75
2022-10-13T04:44:25.521Z,100810.94
2022-10-13T04:46:53.175Z,100814.56
2022-10-13T04:49:22.332Z,100809.44
2022-10-13T04:51:50.041Z,100807.72
2022-10-13T04:54:17.739Z,100811.28
2022-10-13T04:56:46.039Z,100805.72
2022-10-13T04:59:13.750Z,100795.94
2022-10-13T05:01:41.610Z,100799.53
2022-10-13T05:04:14.092Z,100794.28
2022-10-13T05:07:12.534Z,100785.44
2022-10-13T05:09:32.549Z,100778.56
2022-10-13T05:12:00.230Z,100776.63
2022-10-13T05:14:27.853Z,100760.22
2022-10-13T05:16:55.516Z,100755.94
2022-10-13T05:19:23.458Z,100748.91
2022-10-13T05:21:54.269Z,100752.38
2022-10-13T05:24:30.919Z,100755.19
2022-10-13T05:26:58.682Z,100761.50
2022-10-13T05:29:26.426Z,100753.78
2022-10-13T05:31:54.166Z,100755.34
2022-10-13T05:34:21.949Z,100744.91
2022-10-13T05:36:49.746Z,100748.41
2022-10-13T05:39:18.917Z,100745.69
2022-10-13T05:41:46.690Z,100737.84
2022-10-13T05:44:14.834Z,100742.06
2022-10-13T05:46:54.184Z,100739.56
2022-10-13T05:49:21.882Z,100743.84
2022-10-13T05:51:53.296Z,100745.59
2022-10-13T05:54:26.285Z,100741.94
2022-10-13T05:56:57.996Z,100737.41
2022-10-13T05:59:30.892Z,100736.38
2022-10-13T06:01:58.829Z,100734.59
2022-10-13T06:04:31.288Z,100735.38
2022-10-13T06:06:58.963Z,100737.03
2022-10-13T06:09:34.482Z,100744.75
2022-10-13T06:12:02.213Z,100744.03
2022-10-13T06:14:30.085Z,100745.97
2022-10-13T06:16:57.742Z,100736.38
2022-10-13T06:19:25.368Z,100739.91
2022-10-13T06:21:53.161Z,100743.38
2022-10-13T06:24:20.822Z,100743.13
2022-10-13T06:26:49.738Z,100740.53
2022-10-13T06:29:17.328Z,100737.69
2022-10-13T06:31:45.277Z,100736.03
2022-10-13T06:34:13.043Z,100732.41
2022-10-13T06:36:45.210Z,100729.66
2022-10-13T06:39:14.437Z,100739.88
2022-10-13T06:41:42.098Z,100738.94
2022-10-13T06:44:11.527Z,100751.13
2022-10-13T06:46:39.294Z,100735.31
2022-10-13T06:49:10.188Z,100729.03
2022-10-13T06:51:37.994Z,100726.34
2022-10-13T06:54:05.719Z,100706.25
2022-10-13T06:56:34.720Z,100724.28
2022-10-13T06:59:12.516Z,100729.22
2022-10-13T07:01:41.854Z,100741.94
2022-10-13T07:04:13.417Z,100738.34
2022-10-13T07:06:41.146Z,100744.38
2022-10-13T07:09:09.752Z,100741.88
2022-10-13T07:11:38.633Z,100747.31
2022-10-13T07:14:06.355Z,100738.44
2022-10-13T07:16:35.405Z,100737.41
2022-10-13T07:19:03.655Z,100729.53
2022-10-13T07:21:31.574Z,100726.75
2022-10-13T07:23:59.394Z,100718.03
2022-10-13T07:26:29.080Z,100722.22
2022-10-13T07:28:56.814Z,100712.72
2022-10-13T07:31:24.605Z,100706.44
2022-10-13T07:33:53.789Z,100704.38
2022-10-13T07:36:27.909Z,100708.31
2022-10-13T07:38:55.583Z,100695.06
2022-10-13T07:41:23.660Z,100701.66
2022-10-13T07:43:55.914Z,100699.50
2022-10-13T07:46:23.913Z,100707.00
2022-10-13T07:48:53.269Z,100702.28
2022-10-13T07:51:22.782Z,100706.78
2022-10-13T07:53:50.992Z,100709.19
2022-10-13T07:56:18.974Z,100721.22
2022-10-13T07:58:48.120Z,100714.34
2022-10-13T08:01:16.909Z,100716.91
2022-10-13T08:03:49.891Z,100710.84
2022-10-13T08:06:20.705Z,100708.28
2022-10-13T08:08:48.611Z,100720.22
2022-10-13T08:11:18.667Z,100718.94
2022-10-13T08:13:49.262Z,100715.28
2022-10-13T08:16:23.118Z,100723.75
2022-10-13T08:18:50.844Z,100730.63
2022-10-13T08:24:13.080Z,100740.53
2022-10-13T08:26:41.465Z,100740.63
2022-10-13T08:29:21.474Z,100752.03
2022-10-13T08:31:50.600Z,100741.84
2022-10-13T08:34:18.408Z,100743.56
2022-10-13T08:36:47.474Z,100742.06
2022-10-13T08:39:15.474Z,100736.84
2022-10-13T08:41:44.837Z,100734.25
2022-10-13T08:47:15.794Z,100743.88
2022-10-13T08:49:46.129Z,100737.81
2022-10-13T08:52:21.446Z,100737.00
2022-10-13T08:54:50.356Z,100736.91
2022-10-13T08:57:19.085Z,100741.25
2022-10-13T08:59:47.616Z,100733.44
2022-10-13T09:02:22.843Z,100734.25
2022-10-13T09:04:53.393Z,100738.53
2022-10-13T09:07:27.152Z,100729.75
2022-10-13T09:09:56.331Z,100735.56
2022-10-13T09:12:26.277Z,100738.09
2022-10-13T09:15:01.262Z,100739.59
2022-10-13T09:17:29.730Z,100739.34
2022-10-13T09:20:02.676Z,100744.56
2022-10-13T09:22:33.971Z,100734.91
2022-10-13T09:25:09.943Z,100737.59
2022-10-13T09:27:45.385Z,100734.06
2022-10-13T09:30:26.860Z,100731.97
2022-10-13T09:33:07.427Z,100728.47
2022-10-13T09:35:37.516Z,100737.00
2022-10-13T09:38:07.838Z,100744.91
2022-10-13T09:40:35.958Z,100744.06
2022-10-13T09:43:07.166Z,100734.47
2022-10-13T09:45:34.889Z,100734.66
2022-10-13T09:48:06.343Z,100732.09
2022-10-13T09:50:36.276Z,100723.38
2022-10-13T09:53:22.007Z,100725.31
2022-10-13T09:55:49.855Z,100722.19
2022-10-13T09:58:26.318Z,100715.41
2022-10-13T10:00:55.132Z,100693.78
2022-10-13T10:03:25.482Z,100689.28
2022-10-13T10:05:56.170Z,100689.44
2022-10-13T10:08:57.903Z,100704.22
2022-10-13T10:11:29.697Z,100713.28
2022-10-13T10:13:57.672Z,100707.06
2022-10-13T10:16:36.158Z,100712.16
2022-10-13T10:19:09.071Z,100708.50
2022-10-13T10:21:43.498Z,100708.50
2022-10-13T10:24:25.799Z,100695.47
2022-10-13T10:27:01.226Z,100697.97
2022-10-13T10:29:39.093Z,100693.72
2022-10-13T10:32:22.199Z,100686.88
2022-10-13T10:34:54.640Z,100679.78
2022-10-13T10:37:39.256Z,100663.94
2022-10-13T10:40:22.509Z,100655.22
2022-10-13T10:43:04.137Z,100639.03
2022-10-13T10:45:35.667Z,100637.81
2022-10-13T10:48:08.714Z,100632.38
2022-10-13T10:50:36.870Z,100634.53
2022-10-13T10:53:10.335Z,100632.09
2022-10-13T10:55:49.944Z,100618.69
2022-10-13T10:58:27.663Z,100608.84
2022-10-13T11:01:06.243Z,100602.34
2022-10-13T11:03:52.048Z,100595.53
2022-10-13T11:06:26.155Z,100594.63
2022-10-13T11:08:55.239Z,100589.50
2022-10-13T11:11:44.055Z,100581.59
2022-10-13T11:14:30.870Z,100578.03
2022-10-13T11:17:17.186Z,100577.66
2022-10-13T11:19:45.150Z,100570.41
2022-10-13T11:22:23.844Z,100566.38
2022-10-13T11:24:57.967Z,100565.44
2022-10-13T11:27:41.750Z,100570.91
2022-10-13T11:30:41.235Z,100573.38
2022-10-13T11:33:45.867Z,100567.38
2022-10-13T11:36:47.803Z,100560.41
2022-10-13T11:39:43.389Z,100551.09
2022-10-13T11:42:32.431Z,100562.75
2022-10-13T11:45:02.964Z,100574.06
2022-10-13T11:47:57.004Z,100573.63
2022-10-13T11:50:36.073Z,100569.91
2022-10-13T11:53:17.279Z,100571.88
2022-10-13T11:55:51.055Z,100575.81
2022-10-13T11:58:22.991Z,100569.81
2022-10-13T12:00:52.569Z,100563.50
2022-10-13T12:03:22.515Z,100572.41
2022-10-13T12:05:51.423Z,100568.03
2022-10-13T12:08:21.882Z,100569.91
2022-10-13T12:10:55.624Z,100581.22
2022-10-13T12:13:27.428Z,100597.41
2022-10-13T12:16:03.375Z,100589.56
2022-10-13T12:18:34.044Z,100583.25
2022-10-13T12:21:04.117Z,100566.84
2022-10-13T12:23:33.241Z,100552.81
2022-10-13T12:26:01.799Z,100544.72
2022-10-13T12:28:45.691Z,100543.44
2022-10-13T12:31:20.483Z,100542.44
2022-10-13T12:33:54.669Z,100543.44
2022-10-13T12:36:26.325Z,100543.88
2022-10-13T12:38:59.610Z,100534.25
2022-10-13T12:41:30.290Z,100530.69
2022-10-13T12:44:02.588Z,100526.66
2022-10-13T12:46:38.409Z,100521.47
2022-10-13T12:49:07.092Z,100527.31
2022-10-13T12:51:37.203Z,100526.28
2022-10-13T12:54:08.881Z,100531.75
2022-10-13T12:56:37.004Z,100515.56
2022-10-13T12:59:06.048Z,100506.47
2022-10-13T13:01:34.719Z,100504.63
2022-10-13T13:04:16.184Z,100506.91
2022-10-13T13:06:54.109Z,100506.72
2022-10-13T13:09:26.810Z,100505.06
2022-10-13T13:12:27.222Z,100498.38
2022-10-13T13:14:57.514Z,100498.53
2022-10-13T13:20:26.605Z,100506.22
2022-10-13T13:22:54.405Z,100496.66
2022-10-13T13:25:23.032Z,100491.75
2022-10-13T13:27:51.109Z,100497.09
2022-10-13T13:30:22.282Z,100500.81
2022-10-13T13:32:51.239Z,100497.53
2022-10-13T13:35:19.110Z,100495.56
2022-10-13T13:37:49.671Z,100504.38
2022-10-13T13:40:21.992Z,100510.13
2022-10-13T13:42:49.960Z,100516.81
2022-10-13T13:45:19.526Z,100516.69
2022-10-13T13:47:49.348Z,100515.72
2022-10-13T13:50:20.394Z,100507.34
2022-10-13T13:52:58.759Z,100507.44
2022-10-13T13:55:28.018Z,100500.59
2022-10-13T13:57:55.899Z,100499.84
2022-10-13T14:00:24.453Z,100491.13
2022-10-13T14:02:57.336Z,100484.38
2022-10-13T14:05:25.542Z,100491.56
2022-10-13T14:07:55.850Z,100488.19
2022-10-13T14:10:23.601Z,100498.66
2022-10-13T14:12:52.742Z,100498.50
2022-10-13T14:15:23.439Z,100494.19
2022-10-13T14:17:53.899Z,100491.38
2022-10-13T14:20:23.159Z,100494.09
2022-10-13T14:22:51.018Z,100497.66
2022-10-13T14:25:19.777Z,100497.91
2022-10-13T14:27:47.763Z,100503.19
2022-10-13T14:30:16.079Z,100501.25
2022-10-13T14:32:44.059Z,100503.03
2022-10-13T14:35:11.763Z,100504.00
2022-10-13T14:37:40.757Z,100503.19
2022-10-13T14:40:09.275Z,100496.19
2022-10-13T14:42:38.851Z,100499.72
2022-10-13T14:45:08.291Z,100498.06
2022-10-13T14:47:36.178Z,100499.16
2022-10-13T14:50:03.963Z,100496.53
2022-10-13T14:52:31.676Z,100495.69
2022-10-13T14:55:00.741Z,100499.97
2022-10-13T14:57:28.632Z,100485.28
2022-10-13T15:00:00.885Z,100482.66
2022-10-13T15:02:29.941Z,100476.59
2022-10-13T15:04:57.799Z,100466.97
2022-10-13T15:07:25.542Z,100474.66
2022-10-13T15:10:04.912Z,100463.44
2022-10-13T15:12:35.337Z,100468.56
2022-10-13T15:15:03.427Z,100466.66
2022-10-13T15:17:33.157Z,100464.94
2022-10-13T15:20:00.938Z,100466.91
2022-10-13T15:22:28.643Z,100469.50
2022-10-13T15:24:56.385Z,100477.50
2022-10-13T15:27:24.507Z,100473.41
2022-10-13T15:29:53.462Z,100479.75
2022-10-13T15:32:21.717Z,100486.81
2022-10-13T15:34:55.759Z,100471.38
2022-10-13T15:37:23.481Z,100469.66
2022-10-13T15:39:56.861Z,100467.22
2022-10-13T15:42:25.176Z,100468.06
2022-10-13T15:45:11.143Z,100463.09
2022-10-13T15:47:39.359Z,100466.56
2022-10-13T15:50:08.148Z,100457.88
2022-10-13T15:52:39.071Z,100463.88
2022-10-13T15:55:07.421Z,100459.72
2022-10-13T15:57:35.153Z,100458.94
2022-10-13T16:00:06.470Z,100453.72
2022-10-13T16:02:40.194Z,100438.94
2022-10-13T16:05:09.735Z,100451.28
2022-10-13T16:07:37.959Z,100439.13
2022-10-13T16:10:06.355Z,100432.31
2022-10-13T16:12:34.126Z,100432.63
2022-10-13T16:15:01.777Z,100430.19
2022-10-13T16:17:30.770Z,100432.06
2022-10-13T16:19:58.500Z,100428.72
2022-10-13T16:22:26.176Z,100435.66
2022-10-13T16:24:53.757Z,100427.81
2022-10-13T16:27:21.595Z,100422.69
2022-10-13T16:29:49.261Z,100419.28
2022-10-13T16:32:16.954Z,100417.53
2022-10-13T16:34:47.988Z,100420.16
2022-10-13T16:37:20.274Z,100411.44
2022-10-13T16:39:51.691Z,100410.59
2022-10-13T16:42:19.984Z,100412.63
2022-10-13T16:44:47.781Z,100405.88
2022-10-13T16:47:18.431Z,100403.19
2022-10-13T16:49:48.250Z,100404.09
2022-10-13T16:52:17.410Z,100404.22
2022-10-13T16:54:45.026Z,100399.91
2022-10-13T16:57:12.782Z,100400.81
2022-10-13T16:59:40.411Z,100401.72
2022-10-13T17:02:08.146Z,100400.91
2022-10-13T17:04:39.908Z,100395.75
2022-10-13T17:07:11.669Z,100388.84
2022-10-13T17:09:39.536Z,100394.16
2022-10-13T17:12:07.755Z,100393.56
2022-10-13T17:14:35.468Z,100391.03
2022-10-13T17:17:03.118Z,100391.19
2022-10-13T17:19:30.789Z,100395.56
2022-10-13T17:21:58.487Z,100392.22
2022-10-13T17:24:27.514Z,100398.34
2022-10-13T17:26:55.383Z,100403.59
2022-10-13T17:29:23.023Z,100403.66
2022-10-13T17:31:50.860Z,100401.97
2022-10-13T17:34:22.216Z,100400.13
2022-10-13T17:36:52.174Z,100392.44
2022-10-13T17:39:20.058Z,100393.31
2022-10-13T17:41:49.215Z,100394.28
2022-10-13T17:44:20.390Z,100396.16
2022-10-13T17:46:49.072Z,100387.28
2022-10-13T17:49:17.544Z,100390.75
2022-10-13T17:51:46.316Z,100397.69
2022-10-13T17:54:16.500Z,100396.81
2022-10-13T17:56:45.127Z,100393.31
2022-10-13T17:59:15.235Z,100395.97
2022-10-13T18:01:43.490Z,100388.22
2022-10-13T18:04:13.722Z,100390.06
2022-10-13T18:06:44.687Z,100390.94
2022-10-13T18:09:17.419Z,100388.22
2022-10-13T18:11:50.547Z,100391.53
2022-10-13T18:14:21.658Z,100389.75
2022-10-13T18:16:49.821Z,100397.56
2022-10-13T18:19:17.590Z,100393.97
2022-10-13T18:21:45.213Z,100386.97
2022-10-13T18:24:12.929Z,100388.75
2022-10-13T18:26:41.006Z,100386.13
2022-10-13T18:29:10.100Z,100380.97
2022-10-13T18:31:41.393Z,100379.03
2022-10-13T18:34:12.869Z,100383.53
2022-10-13T18:36:42.584Z,100383.53
2022-10-13T18:39:13.861Z,100379.88
2022-10-13T18:41:43.839Z,100378.06
2022-10-13T18:44:11.763Z,100384.94
2022-10-13T18:46:40.972Z,100378.91
2022-10-13T18:49:12.313Z,100385.91
2022-10-13T18:51:43.338Z,100386.03
2022-10-13T18:54:12.084Z,100392.97
2022-10-13T18:56:39.889Z,100393.72
2022-10-13T18:59:08.966Z,100391.88
2022-10-13T19:01:38.660Z,100392.47
2022-10-13T19:04:08.597Z,100400.38
2022-10-13T19:06:36.397Z,100398.53
2022-10-13T19:09:06.951Z,100384.38
2022-10-13T19:11:37.535Z,100381.94
2022-10-13T19:14:07.221Z,100387.25
2022-10-13T19:16:39.311Z,100379.56
2022-10-13T19:19:09.481Z,100374.50
2022-10-13T19:21:38.151Z,100377.09
2022-10-13T19:24:06.721Z,100376.19
2022-10-13T19:26:35.680Z,100373.56
2022-10-13T19:29:06.285Z,100367.59
2022-10-13T19:31:34.792Z,100372.91
2022-10-13T19:34:09.982Z,100366.09
2022-10-13T19:36:40.659Z,100361.78
2022-10-13T19:39:12.187Z,100363.53
2022-10-13T19:41:41.282Z,100367.06
2022-10-13T19:44:09.212Z,100373.13
2022-10-13T19:46:40.533Z,100386.31
2022-10-13T19:49:10.675Z,100379.22
2022-10-13T19:51:42.946Z,100376.53
2022-10-13T19:54:11.914Z,100374.59
2022-10-13T19:56:46.325Z,100381.66
2022-10-13T19:59:15.386Z,100382.50
2022-10-13T20:01:43.713Z,100380.75
2022-10-13T20:04:20.596Z,100379.88
2022-10-13T20:06:49.673Z,100378.19
2022-10-13T20:09:18.288Z,100368.69
2022-10-13T20:11:47.650Z,100377.53
2022-10-13T20:14:16.416Z,100375.06
2022-10-13T20:16:44.746Z,100374.16
2022-10-13T20:19:14.339Z,100366.50
2022-10-13T20:21:46.012Z,100366.50
2022-10-13T20:24:14.869Z,100357.72
2022-10-13T20:26:42.558Z,100368.25
2022-10-13T20:29:10.432Z,100363.88
2022-10-13T20:31:38.481Z,100364.63
2022-10-13T20:34:06.685Z,100355.94
2022-10-13T20:36:38.859Z,100357.63
2022-10-13T20:39:09.004Z,100352.47
2022-10-13T20:41:37.015Z,100349.03
2022-10-13T20:44:04.945Z,100351.81
2022-10-13T20:46:34.714Z,100350.97
2022-10-13T20:49:10.989Z,100339.75
2022-10-13T20:51:40.358Z,100342.44
2022-10-13T20:54:10.344Z,100341.59
2022-10-13T20:56:38.415Z,100343.53
2022-10-13T20:59:08.287Z,100349.59
2022-10-13T21:01:36.812Z,100342.63
2022-10-13T21:04:05.314Z,100340.84
2022-10-13T21:06:33.363Z,100346.16
2022-10-13T21:09:01.358Z,100348.00
2022-10-13T21:11:30.661Z,100356.00
2022-10-13T21:13:58.384Z,100356.09
2022-10-13T21:16:28.025Z,100354.47
2022-10-13T21:18:57.630Z,100360.63
2022-10-13T21:21:27.189Z,100366.84
2022-10-13T21:23:56.123Z,100359.00
2022-10-13T21:26:25.473Z,100358.16
2022-10-13T21:28:54.625Z,100362.56
2022-10-13T21:31:24.049Z,100360.91
2022-10-13T21:33:52.005Z,100370.47
2022-10-13T21:36:21.497Z,100364.34
2022-10-13T21:38:52.266Z,100366.00
2022-10-13T21:41:20.150Z,100371.16
2022-10-13T21:43:47.943Z,100368.59
2022-10-13T21:46:19.731Z,100364.22
2022-10-13T21:48:54.150Z,100359.16
2022-10-13T21:51:23.974Z,100357.44
2022-10-13T21:53:54.218Z,100363.75
2022-10-13T21:56:22.398Z,100358.69
2022-10-13T21:58:50.119Z,100362.09
2022-10-13T22:01:20.461Z,100353.47
2022-10-13T22:03:51.298Z,100360.47
2022-10-13T22:06:20.673Z,100354.41
2022-10-13T22:08:50.939Z,100359.78
2022-10-13T22:11:22.973Z,100365.91
2022-10-13T22:13:50.788Z,100355.41
2022-10-13T22:16:21.934Z,100357.19
2022-10-13T22:18:52.926Z,100352.88
2022-10-13T22:21:22.663Z,100351.94
2022-10-13T22:23:50.631Z,100356.31
2022-10-13T22:26:19.654Z,100359.03
2022-10-13T22:28:51.538Z,100353.94
2022-10-13T22:31:20.750Z,100364.31
2022-10-13T22:33:48.813Z,100357.19
2022-10-13T22:36:17.890Z,100359.84
2022-10-13T22:38:46.403Z,100359.09
2022-10-13T22:41:16.250Z,100354.91
2022-10-13T22:43:46.709Z,100347.06
2022-10-13T22:46:16.848Z,100359.34
2022-10-13T22:48:46.118Z,100351.69
2022-10-13T22:51:16.593Z,100351.69
2022-10-13T22:53:44.665Z,100353.44
2022-10-13T22:56:14.601Z,100353.50
2022-10-13T22:58:42.394Z,100354.28
2022-10-13T23:01:13.443Z,100349.81
2022-10-13T23:03:41.850Z,100351.44
2022-10-13T23:06:15.243Z,100351.44
2022-10-13T23:08:43.461Z,100351.50
2022-10-13T23:11:11.635Z,100355.03
2022-10-13T23:13:39.335Z,100353.38
2022-10-13T23:16:09.694Z,100350.59
2022-10-13T23:18:38.546Z,100351.34
2022-10-13T23:21:07.086Z,100347.97
2022-10-13T23:23:36.162Z,100351.34
2022-10-13T23:26:05.622Z,100349.75
2022-10-13T23:28:33.732Z,100351.50
2022-10-13T23:31:02.322Z,100351.50
2022-10-13T23:33:30.964Z,100352.53
2022-10-13T23:36:02.975Z,100349.75
2022-10-13T23:38:31.871Z,100352.41
2022-10-13T23:41:05.580Z,100344.91
2022-10-13T23:43:34.167Z,100344.91
2022-10-13T23:46:02.175Z,100343.16
2022-10-13T23:48:30.447Z,100341.41
2022-10-13T23:50:58.401Z,100346.75
2022-10-13T23:53:26.231Z,100339.03
2022-10-13T23:55:53.889Z,100341.88
2022-10-13T23:58:28.072Z,100344.03
